Pride Of Canterbury — MPQZ6 — position and weather

sailwx.info

Track history (hours):
 
Tides and Currents Weather Stations Pressure Air Temp Water Temp Dewpoint Dewpoint Depression Visibility Wind Speed Wind Dir Waves Ship Positions

Pride Of Canterbury

Operator: P & O Ferries

Last reported at 2017-Aug-18 09:58 UTC. Time now 2017-Aug-18 10:51 UTC.
Position N 51°07' E 001°21'.

Length 180 m; draft 5.7 m.

Type: Passenger vessel. MMSI: 232001060.

Date/timePositionNaut miles runAvg speedWind from/ knotsBaromVisibWave heightAir tempDewpointWater temp
2017-Aug-18 09:58N 51°07' E 001°21'614.1
2017-Aug-18 09:30N 51°06' E 001°30'715.0
2017-Aug-18 09:01N 51°01' E 001°40'713.3
2017-Aug-18 08:31N 50°58' E 001°50'1 1.5
2017-Aug-18 07:56N 50°58' E 001°51'1 2.4
2017-Aug-18 07:30N 50°58' E 001°49'917.0
2017-Aug-18 06:58N 50°59' E 001°35'716.0
2017-Aug-18 06:31N 51°05' E 001°27'5 3.6
2017-Aug-18 05:11N 51°07' E 001°21'213.5
2017-Aug-18 05:01N 51°07' E 001°24'815.6
2017-Aug-18 04:31N 51°04' E 001°36'816.8
2017-Aug-18 04:01N 50°58' E 001°45'4 6.9
2017-Aug-18 03:29N 50°58' E 001°51'1 1.4
2017-Aug-18 03:00N 50°58' E 001°50'714.6
2017-Aug-18 02:30N 50°59' E 001°39'816.5
2017-Aug-18 02:00N 51°04' E 001°28'6 5.0
2017-Aug-18 00:50N 51°07' E 001°20'3 9.2
2017-Aug-18 00:30N 51°07' E 001°25'714.2
2017-Aug-18 00:01N 51°04' E 001°35'816.6
2017-Aug-17 23:30N 50°58' E 001°45'4 7.6
2017-Aug-17 22:59N 50°58' E 001°51'0 0.0
2017-Aug-17 22:30N 50°58' E 001°51'3 6.8
2017-Aug-17 22:00N 50°58' E 001°46'816.0
2017-Aug-17 21:29N 51°01' E 001°33'715.0
2017-Aug-17 21:00N 51°05' E 001°25'4 5.5
2017-Aug-17 20:21N 51°07' E 001°20'0 0.0
2017-Aug-17 19:55N 51°07' E 001°20'1 2.4
2017-Aug-17 19:28N 51°07' E 001°22'714.8
2017-Aug-17 19:00N 51°04' E 001°31'815.2
2017-Aug-17 18:30N 50°60' E 001°41'5 9.0
2017-Aug-17 18:00N 50°58' E 001°48'2 2.7
2017-Aug-17 17:19N 50°58' E 001°51'0 0.2
2017-Aug-17 16:52N 50°58' E 001°51'411.1
2017-Aug-17 16:30N 50°58' E 001°44'816.3
2017-Aug-17 16:00N 51°01' E 001°33'816.2
2017-Aug-17 15:30N 51°06' E 001°22'2 1.8
2017-Aug-17 14:26N 51°07' E 001°20'614.4
2017-Aug-17 14:00N 51°05' E 001°29'816.7
2017-Aug-17 13:30N 51°00' E 001°40'714.5
2017-Aug-17 13:01N 50°58' E 001°51'0 0.2
2017-Aug-17 12:29N 50°58' E 001°51'1 1.9
2017-Aug-17 12:00N 50°58' E 001°50'815.2
2017-Aug-17 11:30N 50°60' E 001°38'816.7
2017-Aug-17 11:00N 51°05' E 001°27'5 3.7
2017-Aug-17 09:36N 51°07' E 001°20'1 8.2
2017-Aug-17 09:30N 51°07' E 001°22'715.2
2017-Aug-17 09:01N 51°04' E 001°32'816.0
2017-Aug-17 08:30N 50°59' E 001°43'5 9.0
2017-Aug-17 07:55N 50°58' E 001°51'0 0.0
2017-Aug-17 07:30N 50°58' E 001°51'2 3.1
2017-Aug-17 07:00N 50°58' E 001°49'916.2
2017-Aug-17 06:26N 51°01' E 001°35'716.8
2017-Aug-17 06:00N 51°05' E 001°25'4 4.5
2017-Aug-17 05:08N 51°07' E 001°20'0 0.0
2017-Aug-17 04:52N 51°07' E 001°20'0 0.0
2017-Aug-17 03:51N 51°07' E 001°20'0 0.0
2017-Aug-17 03:08N 51°07' E 001°20'0 0.0
2017-Aug-17 02:49N 51°07' E 001°20'0 0.0
2017-Aug-17 02:06N 51°07' E 001°20'0 0.0
2017-Aug-17 01:48N 51°07' E 001°20'0 0.0
2017-Aug-17 01:26N 51°07' E 001°20'0 0.0
2017-Aug-17 00:38N 51°07' E 001°20'0 0.0
2017-Aug-17 00:13N 51°07' E 001°20'0 0.0
2017-Aug-17 00:00N 51°07' E 001°20'0 0.0
2017-Aug-16 23:20N 51°07' E 001°20'0 0.0
2017-Aug-16 22:47N 51°07' E 001°20'0 0.0
2017-Aug-16 22:24N 51°07' E 001°20'0 0.0
2017-Aug-16 21:58N 51°07' E 001°20'0 0.0
2017-Aug-16 20:04N 51°07' E 001°20'0 0.0
2017-Aug-16 19:56N 51°07' E 001°20'0 0.2
2017-Aug-16 19:30N 51°07' E 001°20'612.2
2017-Aug-16 19:01N 51°07' E 001°30'815.9
2017-Aug-16 18:30N 51°02' E 001°39'714.1
2017-Aug-16 18:00N 50°58' E 001°49'1 2.4
2017-Aug-16 17:30N 50°58' E 001°51'0 0.0
2017-Aug-16 17:00N 50°58' E 001°51'4 7.7
2017-Aug-16 16:30N 50°58' E 001°45'817.0
2017-Aug-16 16:00N 51°02' E 001°33'816.8
2017-Aug-16 15:30N 51°07' E 001°22'1 2.0
2017-Aug-16 14:52N 51°07' E 001°20'0 0.4
2017-Aug-16 14:24N 51°07' E 001°20'616.3
2017-Aug-16 14:01N 51°06' E 001°30'816.2
2017-Aug-16 13:31N 51°00' E 001°39'815.8
2017-Aug-16 13:00N 50°58' E 001°51'0 0.3
2017-Aug-16 12:26N 50°58' E 001°51'0 0.0
2017-Aug-16 12:00N 50°58' E 001°51'611.8
2017-Aug-16 11:31N 50°58' E 001°42'816.4
2017-Aug-16 11:00N 51°01' E 001°30'916.0
2017-Aug-16 10:29N 51°07' E 001°20'0 0.2
2017-Aug-16 10:00N 51°07' E 001°20'0 0.2
2017-Aug-16 09:30N 51°07' E 001°20'713.2
2017-Aug-16 09:01N 51°06' E 001°30'816.7
2017-Aug-16 08:30N 51°00' E 001°41'713.5
2017-Aug-16 08:01N 50°58' E 001°51'0 0.3
2017-Aug-16 07:30N 50°58' E 001°51'0 0.5
2017-Aug-16 07:00N 50°58' E 001°51'816.3
2017-Aug-16 06:30N 50°58' E 001°37'816.1
2017-Aug-16 06:00N 51°04' E 001°28'612.4
2017-Aug-16 05:30N 51°07' E 001°20'0 0.0
2017-Aug-16 04:59N 51°07' E 001°20'0 0.3
2017-Aug-16 04:27N 51°07' E 001°20'510.9
2017-Aug-16 04:00N 51°07' E 001°28'510.7
2017-Aug-16 03:31N 51°03' E 001°34'815.7
2017-Aug-16 03:01N 50°59' E 001°44'4 8.7
2017-Aug-16 02:30N 50°58' E 001°51'0 0.0
2017-Aug-16 02:01N 50°58' E 001°51'0 0.0
2017-Aug-16 01:30N 50°58' E 001°51'0 0.0
2017-Aug-16 01:01N 50°58' E 001°51'0 0.0
2017-Aug-16 00:30N 50°58' E 001°51'2 3.5
2017-Aug-16 00:00N 50°58' E 001°48'815.7
2017-Aug-15 23:30N 50°60' E 001°36'917.5
2017-Aug-15 23:00N 51°05' E 001°25'4 5.9
2017-Aug-15 22:20N 51°07' E 001°20'0 0.0
2017-Aug-15 22:01N 51°07' E 001°20'0 0.0
2017-Aug-15 21:22N 51°07' E 001°20'0 0.4
2017-Aug-15 20:57N 51°07' E 001°20'2 3.4
2017-Aug-15 20:29N 51°07' E 001°23'4 7.5
2017-Aug-15 20:01N 51°08' E 001°28'2 3.8
2017-Aug-15 19:30N 51°06' E 001°26'1 2.4
2017-Aug-15 19:00N 51°07' E 001°26'611.2
2017-Aug-15 18:31N 51°07' E 001°34'815.8
2017-Aug-15 18:01N 50°60' E 001°40'713.5
2017-Aug-15 17:30N 50°58' E 001°51'0 0.4
2017-Aug-15 17:00N 50°58' E 001°51'0 0.2
2017-Aug-15 16:30N 50°58' E 001°51'816.1
2017-Aug-15 16:01N 50°59' E 001°38'917.6
2017-Aug-15 15:30N 51°03' E 001°26'5 4.0
2017-Aug-15 14:10N 51°07' E 001°20'212.3
2017-Aug-15 14:00N 51°07' E 001°23'817.0
2017-Aug-15 13:30N 51°03' E 001°35'917.2
2017-Aug-15 13:01N 50°58' E 001°46'3 5.7
2017-Aug-15 12:30N 50°58' E 001°51'0 0.6
2017-Aug-15 11:45N 50°58' E 001°50'314.2
2017-Aug-15 11:30N 50°58' E 001°45'815.4
2017-Aug-15 11:00N 51°01' E 001°34'816.9
2017-Aug-15 10:30N 51°06' E 001°23'2 2.6
2017-Aug-15 09:33N 51°07' E 001°20'0 1.1
2017-Aug-15 09:16N 51°07' E 001°21'416.0
2017-Aug-15 09:01N 51°06' E 001°27'816.7
2017-Aug-15 08:31N 51°02' E 001°39'815.6
2017-Aug-15 08:01N 50°58' E 001°49'1 2.2
2017-Aug-15 07:30N 50°58' E 001°51'0 0.0
2017-Aug-15 07:00N 50°58' E 001°51'713.0
2017-Aug-15 06:30N 50°59' E 001°41'817.1
2017-Aug-15 06:00N 51°04' E 001°30'7 5.3
2017-Aug-15 04:40N 51°07' E 001°20'0 0.5
2017-Aug-15 04:21N 51°07' E 001°20'412.9
2017-Aug-15 04:01N 51°07' E 001°27'816.7
2017-Aug-15 03:31N 51°01' E 001°37'715.0
2017-Aug-15 03:01N 50°58' E 001°48'2 3.8
2017-Aug-15 02:30N 50°58' E 001°51'0 0.9
2017-Aug-15 02:00N 50°58' E 001°50'816.5
2017-Aug-15 01:31N 50°59' E 001°37'816.3
2017-Aug-15 01:01N 51°04' E 001°26'510.4
2017-Aug-15 00:30N 51°07' E 001°20'0 0.9
2017-Aug-15 00:00N 51°07' E 001°20'1 1.4
2017-Aug-14 23:30N 51°07' E 001°21'917.2
2017-Aug-14 23:01N 51°05' E 001°34'917.1
2017-Aug-14 22:31N 50°59' E 001°43'510.1
2017-Aug-14 22:00N 50°58' E 001°51'0 0.0
2017-Aug-14 21:30N 50°58' E 001°51'3 6.2
2017-Aug-14 21:00N 50°58' E 001°46'816.0
2017-Aug-14 20:31N 50°60' E 001°34'816.9
2017-Aug-14 20:00N 51°06' E 001°24'3 6.2
2017-Aug-14 19:30N 51°07' E 001°20'0 0.2
2017-Aug-14 19:00N 51°07' E 001°20'713.6
2017-Aug-14 18:31N 51°05' E 001°30'816.9
2017-Aug-14 18:01N 51°00' E 001°41'612.8
2017-Aug-14 17:31N 50°58' E 001°51'0 0.3
2017-Aug-14 17:00N 50°58' E 001°51'0 0.7
2017-Aug-14 16:30N 50°58' E 001°51'816.8
2017-Aug-14 16:00N 50°60' E 001°37'917.2
2017-Aug-14 15:30N 51°05' E 001°26'5 9.0
2017-Aug-14 15:00N 51°07' E 001°20'0 0.0
2017-Aug-14 14:30N 51°07' E 001°20'4 7.0
2017-Aug-14 14:01N 51°07' E 001°26'816.8
2017-Aug-14 13:31N 51°02' E 001°37'816.3
2017-Aug-14 13:00N 50°58' E 001°48'2 3.5
2017-Aug-14 12:30N 50°58' E 001°51'0 0.0
2017-Aug-14 12:00N 50°58' E 001°51'5 9.8
2017-Aug-14 11:30N 50°58' E 001°43'815.9
2017-Aug-14 11:00N 51°01' E 001°32'816.4
2017-Aug-14 10:30N 51°07' E 001°21'1 1.8
2017-Aug-14 09:52N 51°07' E 001°20'0 0.5
2017-Aug-14 09:29N 51°07' E 001°20'816.4
2017-Aug-14 09:00N 51°05' E 001°32'917.3
2017-Aug-14 08:30N 50°59' E 001°42'611.1
2017-Aug-14 08:00N 50°58' E 001°51'0 0.0
2017-Aug-14 07:30N 50°58' E 001°51'2 5.0
2017-Aug-14 07:01N 50°58' E 001°47'816.1
2017-Aug-14 06:31N 51°02' E 001°35'816.4
2017-Aug-14 06:00N 51°06' E 001°24'3 5.2
2017-Aug-14 05:25N 51°07' E 001°20'0 0.0
2017-Aug-14 05:00N 51°07' E 001°20'510.9
2017-Aug-14 04:31N 51°06' E 001°28'816.9
2017-Aug-14 04:01N 51°00' E 001°38'714.5
2017-Aug-14 03:30N 50°58' E 001°50'1 2.0
2017-Aug-14 03:00N 50°58' E 001°51'0 0.0
2017-Aug-14 02:30N 50°58' E 001°51'0 0.0
2017-Aug-14 02:01N 50°58' E 001°51'5 9.6
2017-Aug-14 01:30N 50°58' E 001°44'816.6
2017-Aug-14 01:00N 51°01' E 001°31'816.7
2017-Aug-14 00:30N 51°07' E 001°22'1 2.3
2017-Aug-14 00:00N 51°07' E 001°20'0 0.2
2017-Aug-13 23:31N 51°07' E 001°20'815.3
2017-Aug-13 23:01N 51°04' E 001°31'917.7
2017-Aug-13 22:31N 50°59' E 001°43'510.6
2017-Aug-13 22:00N 50°58' E 001°51'0 0.2
2017-Aug-13 21:30N 50°58' E 001°51'1 1.6
2017-Aug-13 21:00N 50°58' E 001°50'714.8
2017-Aug-13 20:31N 50°59' E 001°38'817.0
2017-Aug-13 20:01N 51°04' E 001°27'510.5
2017-Aug-13 19:29N 51°07' E 001°20'0 0.0
2017-Aug-13 18:59N 51°07' E 001°20'4 8.6
2017-Aug-13 18:31N 51°06' E 001°26'917.2
2017-Aug-13 18:01N 51°01' E 001°37'815.8
2017-Aug-13 17:31N 50°58' E 001°49'1 2.6
2017-Aug-13 17:00N 50°58' E 001°51'0 0.0
2017-Aug-13 16:31N 50°58' E 001°51'510.7
2017-Aug-13 16:00N 50°58' E 001°43'917.0
2017-Aug-13 15:29N 51°03' E 001°30'8 6.2
2017-Aug-13 14:13N 51°07' E 001°20'2 9.0
2017-Aug-13 14:01N 51°07' E 001°23'917.1
2017-Aug-13 13:31N 51°03' E 001°35'816.8
2017-Aug-13 13:01N 50°58' E 001°46'3 6.3
2017-Aug-13 12:30N 50°58' E 001°51'0 0.0
2017-Aug-13 12:00N 50°58' E 001°51'4 8.3
2017-Aug-13 11:30N 50°58' E 001°44'815.6
2017-Aug-13 11:00N 51°01' E 001°33'816.6
2017-Aug-13 10:30N 51°06' E 001°23'2 2.8
2017-Aug-13 09:47N 51°07' E 001°20'0 0.3
2017-Aug-13 09:27N 51°07' E 001°20'714.7
2017-Aug-13 09:00N 51°05' E 001°30'917.1
2017-Aug-13 08:30N 50°59' E 001°40'713.2
2017-Aug-13 08:00N 50°58' E 001°51'0 0.3
2017-Aug-13 07:25N 50°58' E 001°51'0 0.3
2017-Aug-13 06:56N 50°58' E 001°51'614.3
2017-Aug-13 06:30N 50°58' E 001°41'917.2
2017-Aug-13 06:00N 51°03' E 001°30'713.2
2017-Aug-13 05:27N 51°07' E 001°20'0 0.0
2017-Aug-13 04:45N 51°07' E 001°20'0 0.0
2017-Aug-13 04:27N 51°07' E 001°20'3 6.7
2017-Aug-13 04:01N 51°07' E 001°25'815.4
2017-Aug-13 03:30N 51°04' E 001°36'815.5
2017-Aug-13 03:00N 50°58' E 001°45'8 4.1
2017-Aug-13 01:01N 51°02' E 001°33'816.9
2017-Aug-13 00:31N 51°07' E 001°22'1 1.6
2017-Aug-12 23:42N 51°07' E 001°20'0 0.9
2017-Aug-12 23:30N 51°07' E 001°20'816.2
2017-Aug-12 23:01N 51°04' E 001°32'917.0
2017-Aug-12 22:30N 50°59' E 001°43'510.4
2017-Aug-12 22:00N 50°58' E 001°51'0 0.0
2017-Aug-12 21:30N 50°58' E 001°51'4 7.6
2017-Aug-12 20:59N 50°58' E 001°45'715.6
2017-Aug-12 20:30N 51°01' E 001°34'917.2
2017-Aug-12 20:00N 51°06' E 001°23'2 2.4
2017-Aug-12 19:08N 51°07' E 001°20'1 9.7
2017-Aug-12 19:00N 51°07' E 001°22'816.1
2017-Aug-12 18:31N 51°03' E 001°33'816.2
2017-Aug-12 18:01N 50°59' E 001°44'5 4.5
2017-Aug-12 17:00N 50°58' E 001°51'2 3.3
2017-Aug-12 16:30N 50°58' E 001°48'1316.9
2017-Aug-12 15:44N 51°03' E 001°30'417.2
2017-Aug-12 15:31N 51°06' E 001°24'3 5.7
2017-Aug-12 14:56N 51°07' E 001°20'0 0.0
2017-Aug-12 14:28N 51°07' E 001°20'510.0
2017-Aug-12 14:01N 51°06' E 001°27'816.5
2017-Aug-12 13:31N 51°01' E 001°38'714.5
2017-Aug-12 13:01N 50°58' E 001°48'2 3.3
2017-Aug-12 12:30N 50°58' E 001°51'0 0.0
2017-Aug-12 12:00N 50°58' E 001°51'5 9.5
2017-Aug-12 11:30N 50°58' E 001°43'816.4
2017-Aug-12 11:00N 51°02' E 001°32'816.5
2017-Aug-12 10:30N 51°06' E 001°21'1 0.9
2017-Aug-12 09:25N 51°07' E 001°20'716.2
2017-Aug-12 09:01N 51°06' E 001°30'816.2
2017-Aug-12 08:30N 51°00' E 001°40'714.5
2017-Aug-12 08:01N 50°58' E 001°51'0 0.2
2017-Aug-12 07:29N 50°58' E 001°51'0 0.9
2017-Aug-12 06:58N 50°58' E 001°50'612.8
2017-Aug-12 06:30N 50°58' E 001°41'917.3
2017-Aug-12 06:00N 51°03' E 001°30'710.8
2017-Aug-12 05:20N 51°07' E 001°20'0 0.0
2017-Aug-12 04:58N 51°07' E 001°20'0 0.2
2017-Aug-12 04:29N 51°07' E 001°20'611.7
2017-Aug-12 04:00N 51°06' E 001°29'815.6
2017-Aug-12 03:30N 51°02' E 001°39'713.8
2017-Aug-12 03:01N 50°58' E 001°49'2 3.0
2017-Aug-12 02:30N 50°58' E 001°51'1 1.1
2017-Aug-12 01:58N 50°58' E 001°50'817.7
2017-Aug-12 01:30N 50°60' E 001°37'817.1
2017-Aug-12 01:00N 51°05' E 001°26'5 5.5
2017-Aug-12 00:07N 51°07' E 001°20'0 0.1
2017-Aug-11 23:43N 51°07' E 001°20'1 4.2
2017-Aug-11 23:30N 51°07' E 001°21'816.1
2017-Aug-11 23:00N 51°03' E 001°33'816.5
2017-Aug-11 22:30N 50°59' E 001°44'5 8.5
2017-Aug-11 21:57N 50°58' E 001°51'0 0.0
2017-Aug-11 21:29N 50°58' E 001°51'3 5.4
2017-Aug-11 21:00N 50°58' E 001°47'714.9
2017-Aug-11 20:30N 50°59' E 001°35'816.8
2017-Aug-11 20:01N 51°05' E 001°25'4 5.7
2017-Aug-11 19:16N 51°07' E 001°20'0 0.3
2017-Aug-11 18:54N 51°07' E 001°20'614.5
2017-Aug-11 18:31N 51°05' E 001°28'816.5
2017-Aug-11 18:01N 51°00' E 001°39'815.1
2017-Aug-11 17:30N 50°58' E 001°51'0 0.5
2017-Aug-11 16:59N 50°58' E 001°51'1 1.2
2017-Aug-11 16:30N 50°58' E 001°50'816.7
2017-Aug-11 16:00N 50°60' E 001°37'817.0
2017-Aug-11 15:31N 51°05' E 001°27'5 9.8
2017-Aug-11 15:00N 51°07' E 001°20'4 4.1
2017-Aug-11 14:00N 51°06' E 001°26'816.0
2017-Aug-11 13:30N 51°02' E 001°37'714.7
2017-Aug-11 13:01N 50°58' E 001°47'3 4.9
2017-Aug-11 12:30N 50°58' E 001°51'0 0.0
2017-Aug-11 12:00N 50°58' E 001°51'5 9.7
2017-Aug-11 11:30N 50°58' E 001°43'816.6
2017-Aug-11 11:00N 51°02' E 001°31'815.9
2017-Aug-11 10:29N 51°07' E 001°21'1 0.9
2017-Aug-11 09:40N 51°07' E 001°20'0 0.4
2017-Aug-11 09:23N 51°07' E 001°20'616.0
2017-Aug-11 09:01N 51°05' E 001°29'917.2
2017-Aug-11 08:31N 51°00' E 001°40'714.2
2017-Aug-11 08:01N 50°58' E 001°51'0 0.2
2017-Aug-11 07:29N 50°58' E 001°51'1 1.6
2017-Aug-11 07:00N 50°58' E 001°50'714.7
2017-Aug-11 06:30N 50°59' E 001°38'917.3
2017-Aug-11 06:00N 51°04' E 001°27'5 8.0
2017-Aug-11 05:19N 51°07' E 001°20'0 0.0
2017-Aug-11 04:49N 51°07' E 001°20'0 0.0
2017-Aug-11 04:30N 51°07' E 001°20'510.8
2017-Aug-11 04:00N 51°06' E 001°28'816.4
2017-Aug-11 03:30N 51°01' E 001°39'714.6
2017-Aug-11 03:00N 50°58' E 001°50'1 1.8
2017-Aug-11 02:29N 50°58' E 001°51'1 1.9
2017-Aug-11 02:00N 50°58' E 001°50'918.7
2017-Aug-11 01:30N 50°59' E 001°35'816.4
2017-Aug-11 01:01N 51°05' E 001°26'4 3.9
2017-Aug-10 23:54N 51°07' E 001°20'511.8
2017-Aug-10 23:31N 51°06' E 001°27'917.1
2017-Aug-10 23:00N 51°01' E 001°39'815.7
2017-Aug-10 22:30N 50°58' E 001°50'1 1.1
2017-Aug-10 22:00N 50°58' E 001°51'2 3.1
2017-Aug-10 21:30N 50°58' E 001°49'814.5
2017-Aug-10 20:58N 50°59' E 001°36'816.5
2017-Aug-10 20:30N 51°03' E 001°26'6 3.7
2017-Aug-10 18:59N 51°07' E 001°20'611.7
2017-Aug-10 18:30N 51°05' E 001°28'816.7
2017-Aug-10 18:00N 51°01' E 001°40'715.0
2017-Aug-10 17:31N 50°58' E 001°51'0 0.5
2017-Aug-10 17:00N 50°58' E 001°51'1 1.7
2017-Aug-10 16:30N 50°59' E 001°50'612.2
2017-Aug-10 16:00N 50°59' E 001°40'817.0
2017-Aug-10 15:30N 51°04' E 001°30'7 5.4
2017-Aug-10 14:14N 51°07' E 001°20'312.7
2017-Aug-10 14:01N 51°07' E 001°25'816.0
2017-Aug-10 13:31N 51°02' E 001°35'815.3
2017-Aug-10 13:00N 50°58' E 001°45'4 6.5
2017-Aug-10 12:28N 50°58' E 001°51'0 0.0
2017-Aug-10 11:59N 50°58' E 001°51'510.1
2017-Aug-10 11:30N 50°58' E 001°44'816.1
2017-Aug-10 11:00N 51°01' E 001°32'10 6.3
2017-Aug-10 09:28N 51°07' E 001°20'715.8
2017-Aug-10 09:00N 51°04' E 001°31'917.2
2017-Aug-10 08:30N 50°59' E 001°42'611.5
2017-Aug-10 08:00N 50°58' E 001°51'0 0.0
2017-Aug-10 07:30N 50°58' E 001°51'1 1.2
2017-Aug-10 07:00N 50°58' E 001°50'714.2
2017-Aug-10 06:30N 50°59' E 001°39'917.0
2017-Aug-10 06:00N 51°04' E 001°28'6 4.1
2017-Aug-10 04:33N 51°07' E 001°20'0 4.3
2017-Aug-10 04:30N 51°07' E 001°21'815.5
2017-Aug-10 04:00N 51°04' E 001°32'816.8
2017-Aug-10 03:30N 50°59' E 001°43'611.2
2017-Aug-10 03:00N 50°58' E 001°51'0 0.0
2017-Aug-10 02:30N 50°58' E 001°51'0 0.3
2017-Aug-10 02:00N 50°58' E 001°51'816.2
2017-Aug-10 01:30N 50°58' E 001°38'916.5
2017-Aug-10 00:59N 51°04' E 001°28'6 4.6
2017-Aug-09 23:42N 51°07' E 001°20'211.6
2017-Aug-09 23:31N 51°07' E 001°23'816.3
2017-Aug-09 23:01N 51°03' E 001°35'816.6
2017-Aug-09 22:31N 50°58' E 001°45'4 6.8
2017-Aug-09 21:59N 50°58' E 001°51'0 0.0
2017-Aug-09 21:30N 50°58' E 001°51'5 9.4
2017-Aug-09 21:00N 50°58' E 001°44'714.9
2017-Aug-09 20:31N 50°59' E 001°32'917.4
2017-Aug-09 20:00N 51°06' E 001°23'2 2.1
2017-Aug-09 18:57N 51°07' E 001°20'511.6
2017-Aug-09 18:30N 51°06' E 001°28'917.1
2017-Aug-09 18:01N 51°01' E 001°39'815.9
2017-Aug-09 17:31N 50°58' E 001°51'0 0.5
2017-Aug-09 17:00N 50°58' E 001°51'0 0.5
2017-Aug-09 16:31N 50°58' E 001°51'815.4
2017-Aug-09 16:00N 50°59' E 001°38'917.4
2017-Aug-09 15:31N 51°04' E 001°27'6 4.2
2017-Aug-09 14:11N 51°07' E 001°20'213.8
2017-Aug-09 14:00N 51°07' E 001°24'815.7
2017-Aug-09 13:31N 51°03' E 001°35'815.8
2017-Aug-09 13:01N 50°58' E 001°45'4 7.6
2017-Aug-09 12:30N 50°58' E 001°51'0 0.0
2017-Aug-09 11:55N 50°58' E 001°51'4 9.8
2017-Aug-09 11:30N 50°58' E 001°45'917.0
2017-Aug-09 11:00N 51°01' E 001°32'916.7
2017-Aug-09 10:28N 51°07' E 001°21'1 0.8
2017-Aug-09 09:23N 51°07' E 001°20'616.2
2017-Aug-09 09:00N 51°05' E 001°29'917.4
2017-Aug-09 08:31N 50°60' E 001°41'713.0
2017-Aug-09 07:59N 50°58' E 001°51'0 0.1
2017-Aug-09 07:29N 50°58' E 001°51'0 0.0
2017-Aug-09 07:01N 50°58' E 001°51'612.6
2017-Aug-09 06:31N 50°58' E 001°41'816.4
2017-Aug-09 06:01N 51°03' E 001°30'8 7.9
2017-Aug-09 05:01N 51°07' E 001°20'0 0.0
2017-Aug-09 04:35N 51°07' E 001°20'0 0.3
2017-Aug-09 04:12N 51°07' E 001°20'212.4
2017-Aug-09 04:01N 51°07' E 001°24'815.7
2017-Aug-09 03:31N 51°03' E 001°35'816.0
2017-Aug-09 03:01N 50°58' E 001°45'4 7.6
2017-Aug-09 02:30N 50°58' E 001°51'0 0.0
2017-Aug-09 01:59N 50°58' E 001°51'612.2
2017-Aug-09 01:30N 50°59' E 001°42'917.0
2017-Aug-09 01:00N 51°03' E 001°30'7 6.0
2017-Aug-08 23:46N 51°07' E 001°20'2 8.8
2017-Aug-08 23:30N 51°07' E 001°24'815.5
2017-Aug-08 23:00N 51°04' E 001°35'815.9
2017-Aug-08 22:30N 50°59' E 001°44'4 8.3
2017-Aug-08 22:00N 50°58' E 001°51'0 0.0
2017-Aug-08 21:30N 50°58' E 001°51'4 7.5
2017-Aug-08 21:00N 50°58' E 001°45'815.8
2017-Aug-08 20:30N 51°01' E 001°33'816.3
2017-Aug-08 20:00N 51°05' E 001°23'3 2.5
2017-Aug-08 18:57N 51°07' E 001°20'510.5
2017-Aug-08 18:30N 51°07' E 001°27'816.0
2017-Aug-08 18:01N 51°02' E 001°38'815.6
2017-Aug-08 17:30N 50°58' E 001°49'1 2.8
2017-Aug-08 17:00N 50°58' E 001°51'0 0.4
2017-Aug-08 16:30N 50°58' E 001°51'715.0
2017-Aug-08 16:01N 50°59' E 001°39'917.3
2017-Aug-08 15:30N 51°04' E 001°28'6 4.7
2017-Aug-08 14:17N 51°07' E 001°20'2 7.9
2017-Aug-08 14:01N 51°07' E 001°23'816.2
2017-Aug-08 13:30N 51°03' E 001°35'815.9
2017-Aug-08 13:00N 50°58' E 001°45'4 6.9
2017-Aug-08 12:28N 50°58' E 001°51'0 0.0
2017-Aug-08 12:00N 50°58' E 001°51'5 9.6
2017-Aug-08 11:30N 50°58' E 001°43'917.8
2017-Aug-08 11:01N 51°01' E 001°30'  
Track history (hours):
 
Tides and Currents Weather Stations Pressure Air Temp Water Temp Dewpoint Dewpoint Depression Visibility Wind Speed Wind Dir Waves Ship Positions

Pride Of Canterbury

Operator: P & O Ferries

Last reported at 2017-Aug-18 09:58 UTC. Time now 2017-Aug-18 10:51 UTC.
Position N 51°07' E 001°21'.

Length 180 m; draft 5.7 m.

Type: Passenger vessel. MMSI: 232001060.

Date/timePositionNaut miles runAvg speedWind from/ knotsBaromVisibWave heightAir tempDewpointWater temp
2017-Aug-18 09:58N 51°07' E 001°21'614.1
2017-Aug-18 09:30N 51°06' E 001°30'715.0
2017-Aug-18 09:01N 51°01' E 001°40'713.3
2017-Aug-18 08:31N 50°58' E 001°50'1 1.5
2017-Aug-18 07:56N 50°58' E 001°51'1 2.4
2017-Aug-18 07:30N 50°58' E 001°49'917.0
2017-Aug-18 06:58N 50°59' E 001°35'716.0
2017-Aug-18 06:31N 51°05' E 001°27'5 3.6
2017-Aug-18 05:11N 51°07' E 001°21'213.5
2017-Aug-18 05:01N 51°07' E 001°24'815.6
2017-Aug-18 04:31N 51°04' E 001°36'816.8
2017-Aug-18 04:01N 50°58' E 001°45'4 6.9
2017-Aug-18 03:29N 50°58' E 001°51'1 1.4
2017-Aug-18 03:00N 50°58' E 001°50'714.6
2017-Aug-18 02:30N 50°59' E 001°39'816.5
2017-Aug-18 02:00N 51°04' E 001°28'6 5.0
2017-Aug-18 00:50N 51°07' E 001°20'3 9.2
2017-Aug-18 00:30N 51°07' E 001°25'714.2
2017-Aug-18 00:01N 51°04' E 001°35'816.6
2017-Aug-17 23:30N 50°58' E 001°45'4 7.6
2017-Aug-17 22:59N 50°58' E 001°51'0 0.0
2017-Aug-17 22:30N 50°58' E 001°51'3 6.8
2017-Aug-17 22:00N 50°58' E 001°46'816.0
2017-Aug-17 21:29N 51°01' E 001°33'715.0
2017-Aug-17 21:00N 51°05' E 001°25'4 5.5
2017-Aug-17 20:21N 51°07' E 001°20'0 0.0
2017-Aug-17 19:55N 51°07' E 001°20'1 2.4
2017-Aug-17 19:28N 51°07' E 001°22'714.8
2017-Aug-17 19:00N 51°04' E 001°31'815.2
2017-Aug-17 18:30N 50°60' E 001°41'5 9.0
2017-Aug-17 18:00N 50°58' E 001°48'2 2.7
2017-Aug-17 17:19N 50°58' E 001°51'0 0.2
2017-Aug-17 16:52N 50°58' E 001°51'411.1
2017-Aug-17 16:30N 50°58' E 001°44'816.3
2017-Aug-17 16:00N 51°01' E 001°33'816.2
2017-Aug-17 15:30N 51°06' E 001°22'2 1.8
2017-Aug-17 14:26N 51°07' E 001°20'614.4
2017-Aug-17 14:00N 51°05' E 001°29'816.7
2017-Aug-17 13:30N 51°00' E 001°40'714.5
2017-Aug-17 13:01N 50°58' E 001°51'0 0.2
2017-Aug-17 12:29N 50°58' E 001°51'1 1.9
2017-Aug-17 12:00N 50°58' E 001°50'815.2
2017-Aug-17 11:30N 50°60' E 001°38'816.7
2017-Aug-17 11:00N 51°05' E 001°27'5 3.7
2017-Aug-17 09:36N 51°07' E 001°20'1 8.2
2017-Aug-17 09:30N 51°07' E 001°22'715.2
2017-Aug-17 09:01N 51°04' E 001°32'816.0
2017-Aug-17 08:30N 50°59' E 001°43'5 9.0
2017-Aug-17 07:55N 50°58' E 001°51'0 0.0
2017-Aug-17 07:30N 50°58' E 001°51'2 3.1
2017-Aug-17 07:00N 50°58' E 001°49'916.2
2017-Aug-17 06:26N 51°01' E 001°35'716.8
2017-Aug-17 06:00N 51°05' E 001°25'4 4.5
2017-Aug-17 05:08N 51°07' E 001°20'0 0.0
2017-Aug-17 04:52N 51°07' E 001°20'0 0.0
2017-Aug-17 03:51N 51°07' E 001°20'0 0.0
2017-Aug-17 03:08N 51°07' E 001°20'0 0.0
2017-Aug-17 02:49N 51°07' E 001°20'0 0.0
2017-Aug-17 02:06N 51°07' E 001°20'0 0.0
2017-Aug-17 01:48N 51°07' E 001°20'0 0.0
2017-Aug-17 01:26N 51°07' E 001°20'0 0.0
2017-Aug-17 00:38N 51°07' E 001°20'0 0.0
2017-Aug-17 00:13N 51°07' E 001°20'0 0.0
2017-Aug-17 00:00N 51°07' E 001°20'0 0.0
2017-Aug-16 23:20N 51°07' E 001°20'0 0.0
2017-Aug-16 22:47N 51°07' E 001°20'0 0.0
2017-Aug-16 22:24N 51°07' E 001°20'0 0.0
2017-Aug-16 21:58N 51°07' E 001°20'0 0.0
2017-Aug-16 20:04N 51°07' E 001°20'0 0.0
2017-Aug-16 19:56N 51°07' E 001°20'0 0.2
2017-Aug-16 19:30N 51°07' E 001°20'612.2
2017-Aug-16 19:01N 51°07' E 001°30'815.9
2017-Aug-16 18:30N 51°02' E 001°39'714.1
2017-Aug-16 18:00N 50°58' E 001°49'1 2.4
2017-Aug-16 17:30N 50°58' E 001°51'0 0.0
2017-Aug-16 17:00N 50°58' E 001°51'4 7.7
2017-Aug-16 16:30N 50°58' E 001°45'817.0
2017-Aug-16 16:00N 51°02' E 001°33'816.8
2017-Aug-16 15:30N 51°07' E 001°22'1 2.0
2017-Aug-16 14:52N 51°07' E 001°20'0 0.4
2017-Aug-16 14:24N 51°07' E 001°20'616.3
2017-Aug-16 14:01N 51°06' E 001°30'816.2
2017-Aug-16 13:31N 51°00' E 001°39'815.8
2017-Aug-16 13:00N 50°58' E 001°51'0 0.3
2017-Aug-16 12:26N 50°58' E 001°51'0 0.0
2017-Aug-16 12:00N 50°58' E 001°51'611.8
2017-Aug-16 11:31N 50°58' E 001°42'816.4
2017-Aug-16 11:00N 51°01' E 001°30'916.0
2017-Aug-16 10:29N 51°07' E 001°20'0 0.2
2017-Aug-16 10:00N 51°07' E 001°20'0 0.2
2017-Aug-16 09:30N 51°07' E 001°20'713.2
2017-Aug-16 09:01N 51°06' E 001°30'816.7
2017-Aug-16 08:30N 51°00' E 001°41'713.5
2017-Aug-16 08:01N 50°58' E 001°51'0 0.3
2017-Aug-16 07:30N 50°58' E 001°51'0 0.5
2017-Aug-16 07:00N 50°58' E 001°51'816.3
2017-Aug-16 06:30N 50°58' E 001°37'816.1
2017-Aug-16 06:00N 51°04' E 001°28'612.4
2017-Aug-16 05:30N 51°07' E 001°20'0 0.0
2017-Aug-16 04:59N 51°07' E 001°20'0 0.3
2017-Aug-16 04:27N 51°07' E 001°20'510.9
2017-Aug-16 04:00N 51°07' E 001°28'510.7
2017-Aug-16 03:31N 51°03' E 001°34'815.7
2017-Aug-16 03:01N 50°59' E 001°44'4 8.7
2017-Aug-16 02:30N 50°58' E 001°51'0 0.0
2017-Aug-16 02:01N 50°58' E 001°51'0 0.0
2017-Aug-16 01:30N 50°58' E 001°51'0 0.0
2017-Aug-16 01:01N 50°58' E 001°51'0 0.0
2017-Aug-16 00:30N 50°58' E 001°51'2 3.5
2017-Aug-16 00:00N 50°58' E 001°48'815.7
2017-Aug-15 23:30N 50°60' E 001°36'917.5
2017-Aug-15 23:00N 51°05' E 001°25'4 5.9
2017-Aug-15 22:20N 51°07' E 001°20'0 0.0
2017-Aug-15 22:01N 51°07' E 001°20'0 0.0
2017-Aug-15 21:22N 51°07' E 001°20'0 0.4
2017-Aug-15 20:57N 51°07' E 001°20'2 3.4
2017-Aug-15 20:29N 51°07' E 001°23'4 7.5
2017-Aug-15 20:01N 51°08' E 001°28'2 3.8
2017-Aug-15 19:30N 51°06' E 001°26'1 2.4
2017-Aug-15 19:00N 51°07' E 001°26'611.2
2017-Aug-15 18:31N 51°07' E 001°34'815.8
2017-Aug-15 18:01N 50°60' E 001°40'713.5
2017-Aug-15 17:30N 50°58' E 001°51'0 0.4
2017-Aug-15 17:00N 50°58' E 001°51'0 0.2
2017-Aug-15 16:30N 50°58' E 001°51'816.1
2017-Aug-15 16:01N 50°59' E 001°38'917.6
2017-Aug-15 15:30N 51°03' E 001°26'5 4.0
2017-Aug-15 14:10N 51°07' E 001°20'212.3
2017-Aug-15 14:00N 51°07' E 001°23'817.0
2017-Aug-15 13:30N 51°03' E 001°35'917.2
2017-Aug-15 13:01N 50°58' E 001°46'3 5.7
2017-Aug-15 12:30N 50°58' E 001°51'0 0.6
2017-Aug-15 11:45N 50°58' E 001°50'314.2
2017-Aug-15 11:30N 50°58' E 001°45'815.4
2017-Aug-15 11:00N 51°01' E 001°34'816.9
2017-Aug-15 10:30N 51°06' E 001°23'2 2.6
2017-Aug-15 09:33N 51°07' E 001°20'0 1.1
2017-Aug-15 09:16N 51°07' E 001°21'416.0
2017-Aug-15 09:01N 51°06' E 001°27'816.7
2017-Aug-15 08:31N 51°02' E 001°39'815.6
2017-Aug-15 08:01N 50°58' E 001°49'1 2.2
2017-Aug-15 07:30N 50°58' E 001°51'0 0.0
2017-Aug-15 07:00N 50°58' E 001°51'713.0
2017-Aug-15 06:30N 50°59' E 001°41'817.1
2017-Aug-15 06:00N 51°04' E 001°30'7 5.3
2017-Aug-15 04:40N 51°07' E 001°20'0 0.5
2017-Aug-15 04:21N 51°07' E 001°20'412.9
2017-Aug-15 04:01N 51°07' E 001°27'816.7
2017-Aug-15 03:31N 51°01' E 001°37'715.0
2017-Aug-15 03:01N 50°58' E 001°48'2 3.8
2017-Aug-15 02:30N 50°58' E 001°51'0 0.9
2017-Aug-15 02:00N 50°58' E 001°50'816.5
2017-Aug-15 01:31N 50°59' E 001°37'816.3
2017-Aug-15 01:01N 51°04' E 001°26'510.4
2017-Aug-15 00:30N 51°07' E 001°20'0 0.9
2017-Aug-15 00:00N 51°07' E 001°20'1 1.4
2017-Aug-14 23:30N 51°07' E 001°21'917.2
2017-Aug-14 23:01N 51°05' E 001°34'917.1
2017-Aug-14 22:31N 50°59' E 001°43'510.1
2017-Aug-14 22:00N 50°58' E 001°51'0 0.0
2017-Aug-14 21:30N 50°58' E 001°51'3 6.2
2017-Aug-14 21:00N 50°58' E 001°46'816.0
2017-Aug-14 20:31N 50°60' E 001°34'816.9
2017-Aug-14 20:00N 51°06' E 001°24'3 6.2
2017-Aug-14 19:30N 51°07' E 001°20'0 0.2
2017-Aug-14 19:00N 51°07' E 001°20'713.6
2017-Aug-14 18:31N 51°05' E 001°30'816.9
2017-Aug-14 18:01N 51°00' E 001°41'612.8
2017-Aug-14 17:31N 50°58' E 001°51'0 0.3
2017-Aug-14 17:00N 50°58' E 001°51'0 0.7
2017-Aug-14 16:30N 50°58' E 001°51'816.8
2017-Aug-14 16:00N 50°60' E 001°37'917.2
2017-Aug-14 15:30N 51°05' E 001°26'5 9.0
2017-Aug-14 15:00N 51°07' E 001°20'0 0.0
2017-Aug-14 14:30N 51°07' E 001°20'4 7.0
2017-Aug-14 14:01N 51°07' E 001°26'816.8
2017-Aug-14 13:31N 51°02' E 001°37'816.3
2017-Aug-14 13:00N 50°58' E 001°48'2 3.5
2017-Aug-14 12:30N 50°58' E 001°51'0 0.0
2017-Aug-14 12:00N 50°58' E 001°51'5 9.8
2017-Aug-14 11:30N 50°58' E 001°43'815.9
2017-Aug-14 11:00N 51°01' E 001°32'816.4
2017-Aug-14 10:30N 51°07' E 001°21'1 1.8
2017-Aug-14 09:52N 51°07' E 001°20'0 0.5
2017-Aug-14 09:29N 51°07' E 001°20'816.4
2017-Aug-14 09:00N 51°05' E 001°32'917.3
2017-Aug-14 08:30N 50°59' E 001°42'611.1
2017-Aug-14 08:00N 50°58' E 001°51'0 0.0
2017-Aug-14 07:30N 50°58' E 001°51'2 5.0
2017-Aug-14 07:01N 50°58' E 001°47'816.1
2017-Aug-14 06:31N 51°02' E 001°35'816.4
2017-Aug-14 06:00N 51°06' E 001°24'3 5.2
2017-Aug-14 05:25N 51°07' E 001°20'0 0.0
2017-Aug-14 05:00N 51°07' E 001°20'510.9
2017-Aug-14 04:31N 51°06' E 001°28'816.9
2017-Aug-14 04:01N 51°00' E 001°38'714.5
2017-Aug-14 03:30N 50°58' E 001°50'1 2.0
2017-Aug-14 03:00N 50°58' E 001°51'0 0.0
2017-Aug-14 02:30N 50°58' E 001°51'0 0.0
2017-Aug-14 02:01N 50°58' E 001°51'5 9.6
2017-Aug-14 01:30N 50°58' E 001°44'816.6
2017-Aug-14 01:00N 51°01' E 001°31'816.7
2017-Aug-14 00:30N 51°07' E 001°22'1 2.3
2017-Aug-14 00:00N 51°07' E 001°20'0 0.2
2017-Aug-13 23:31N 51°07' E 001°20'815.3
2017-Aug-13 23:01N 51°04' E 001°31'917.7
2017-Aug-13 22:31N 50°59' E 001°43'510.6
2017-Aug-13 22:00N 50°58' E 001°51'0 0.2
2017-Aug-13 21:30N 50°58' E 001°51'1 1.6
2017-Aug-13 21:00N 50°58' E 001°50'714.8
2017-Aug-13 20:31N 50°59' E 001°38'817.0
2017-Aug-13 20:01N 51°04' E 001°27'510.5
2017-Aug-13 19:29N 51°07' E 001°20'0 0.0
2017-Aug-13 18:59N 51°07' E 001°20'4 8.6
2017-Aug-13 18:31N 51°06' E 001°26'917.2
2017-Aug-13 18:01N 51°01' E 001°37'815.8
2017-Aug-13 17:31N 50°58' E 001°49'1 2.6
2017-Aug-13 17:00N 50°58' E 001°51'0 0.0
2017-Aug-13 16:31N 50°58' E 001°51'510.7
2017-Aug-13 16:00N 50°58' E 001°43'917.0
2017-Aug-13 15:29N 51°03' E 001°30'8 6.2
2017-Aug-13 14:13N 51°07' E 001°20'2 9.0
2017-Aug-13 14:01N 51°07' E 001°23'917.1
2017-Aug-13 13:31N 51°03' E 001°35'816.8
2017-Aug-13 13:01N 50°58' E 001°46'3 6.3
2017-Aug-13 12:30N 50°58' E 001°51'0 0.0
2017-Aug-13 12:00N 50°58' E 001°51'4 8.3
2017-Aug-13 11:30N 50°58' E 001°44'815.6
2017-Aug-13 11:00N 51°01' E 001°33'816.6
2017-Aug-13 10:30N 51°06' E 001°23'2 2.8
2017-Aug-13 09:47N 51°07' E 001°20'0 0.3
2017-Aug-13 09:27N 51°07' E 001°20'714.7
2017-Aug-13 09:00N 51°05' E 001°30'917.1
2017-Aug-13 08:30N 50°59' E 001°40'713.2
2017-Aug-13 08:00N 50°58' E 001°51'0 0.3
2017-Aug-13 07:25N 50°58' E 001°51'0 0.3
2017-Aug-13 06:56N 50°58' E 001°51'614.3
2017-Aug-13 06:30N 50°58' E 001°41'917.2
2017-Aug-13 06:00N 51°03' E 001°30'713.2
2017-Aug-13 05:27N 51°07' E 001°20'0 0.0
2017-Aug-13 04:45N 51°07' E 001°20'0 0.0
2017-Aug-13 04:27N 51°07' E 001°20'3 6.7
2017-Aug-13 04:01N 51°07' E 001°25'815.4
2017-Aug-13 03:30N 51°04' E 001°36'815.5
2017-Aug-13 03:00N 50°58' E 001°45'8 4.1
2017-Aug-13 01:01N 51°02' E 001°33'816.9
2017-Aug-13 00:31N 51°07' E 001°22'1 1.6
2017-Aug-12 23:42N 51°07' E 001°20'0 0.9
2017-Aug-12 23:30N 51°07' E 001°20'816.2
2017-Aug-12 23:01N 51°04' E 001°32'917.0
2017-Aug-12 22:30N 50°59' E 001°43'510.4
2017-Aug-12 22:00N 50°58' E 001°51'0 0.0
2017-Aug-12 21:30N 50°58' E 001°51'4 7.6
2017-Aug-12 20:59N 50°58' E 001°45'715.6
2017-Aug-12 20:30N 51°01' E 001°34'917.2
2017-Aug-12 20:00N 51°06' E 001°23'2 2.4
2017-Aug-12 19:08N 51°07' E 001°20'1 9.7
2017-Aug-12 19:00N 51°07' E 001°22'816.1
2017-Aug-12 18:31N 51°03' E 001°33'816.2
2017-Aug-12 18:01N 50°59' E 001°44'5 4.5
2017-Aug-12 17:00N 50°58' E 001°51'2 3.3
2017-Aug-12 16:30N 50°58' E 001°48'1316.9
2017-Aug-12 15:44N 51°03' E 001°30'417.2
2017-Aug-12 15:31N 51°06' E 001°24'3 5.7
2017-Aug-12 14:56N 51°07' E 001°20'0 0.0
2017-Aug-12 14:28N 51°07' E 001°20'510.0
2017-Aug-12 14:01N 51°06' E 001°27'816.5
2017-Aug-12 13:31N 51°01' E 001°38'714.5
2017-Aug-12 13:01N 50°58' E 001°48'2 3.3
2017-Aug-12 12:30N 50°58' E 001°51'0 0.0
2017-Aug-12 12:00N 50°58' E 001°51'5 9.5
2017-Aug-12 11:30N 50°58' E 001°43'816.4
2017-Aug-12 11:00N 51°02' E 001°32'816.5
2017-Aug-12 10:30N 51°06' E 001°21'1 0.9
2017-Aug-12 09:25N 51°07' E 001°20'716.2
2017-Aug-12 09:01N 51°06' E 001°30'816.2
2017-Aug-12 08:30N 51°00' E 001°40'714.5
2017-Aug-12 08:01N 50°58' E 001°51'0 0.2
2017-Aug-12 07:29N 50°58' E 001°51'0 0.9
2017-Aug-12 06:58N 50°58' E 001°50'612.8
2017-Aug-12 06:30N 50°58' E 001°41'917.3
2017-Aug-12 06:00N 51°03' E 001°30'710.8
2017-Aug-12 05:20N 51°07' E 001°20'0 0.0
2017-Aug-12 04:58N 51°07' E 001°20'0 0.2
2017-Aug-12 04:29N 51°07' E 001°20'611.7
2017-Aug-12 04:00N 51°06' E 001°29'815.6
2017-Aug-12 03:30N 51°02' E 001°39'713.8
2017-Aug-12 03:01N 50°58' E 001°49'2 3.0
2017-Aug-12 02:30N 50°58' E 001°51'1 1.1
2017-Aug-12 01:58N 50°58' E 001°50'817.7
2017-Aug-12 01:30N 50°60' E 001°37'817.1
2017-Aug-12 01:00N 51°05' E 001°26'5 5.5
2017-Aug-12 00:07N 51°07' E 001°20'0 0.1
2017-Aug-11 23:43N 51°07' E 001°20'1 4.2
2017-Aug-11 23:30N 51°07' E 001°21'816.1
2017-Aug-11 23:00N 51°03' E 001°33'816.5
2017-Aug-11 22:30N 50°59' E 001°44'5 8.5
2017-Aug-11 21:57N 50°58' E 001°51'0 0.0
2017-Aug-11 21:29N 50°58' E 001°51'3 5.4
2017-Aug-11 21:00N 50°58' E 001°47'714.9
2017-Aug-11 20:30N 50°59' E 001°35'816.8
2017-Aug-11 20:01N 51°05' E 001°25'4 5.7
2017-Aug-11 19:16N 51°07' E 001°20'0 0.3
2017-Aug-11 18:54N 51°07' E 001°20'614.5
2017-Aug-11 18:31N 51°05' E 001°28'816.5
2017-Aug-11 18:01N 51°00' E 001°39'815.1
2017-Aug-11 17:30N 50°58' E 001°51'0 0.5
2017-Aug-11 16:59N 50°58' E 001°51'1 1.2
2017-Aug-11 16:30N 50°58' E 001°50'816.7
2017-Aug-11 16:00N 50°60' E 001°37'817.0
2017-Aug-11 15:31N 51°05' E 001°27'5 9.8
2017-Aug-11 15:00N 51°07' E 001°20'4 4.1
2017-Aug-11 14:00N 51°06' E 001°26'816.0
2017-Aug-11 13:30N 51°02' E 001°37'714.7
2017-Aug-11 13:01N 50°58' E 001°47'3 4.9
2017-Aug-11 12:30N 50°58' E 001°51'0 0.0
2017-Aug-11 12:00N 50°58' E 001°51'5 9.7
2017-Aug-11 11:30N 50°58' E 001°43'816.6
2017-Aug-11 11:00N 51°02' E 001°31'815.9
2017-Aug-11 10:29N 51°07' E 001°21'1 0.9
2017-Aug-11 09:40N 51°07' E 001°20'0 0.4
2017-Aug-11 09:23N 51°07' E 001°20'616.0
2017-Aug-11 09:01N 51°05' E 001°29'917.2
2017-Aug-11 08:31N 51°00' E 001°40'714.2
2017-Aug-11 08:01N 50°58' E 001°51'0 0.2
2017-Aug-11 07:29N 50°58' E 001°51'1 1.6
2017-Aug-11 07:00N 50°58' E 001°50'714.7
2017-Aug-11 06:30N 50°59' E 001°38'917.3
2017-Aug-11 06:00N 51°04' E 001°27'5 8.0
2017-Aug-11 05:19N 51°07' E 001°20'0 0.0
2017-Aug-11 04:49N 51°07' E 001°20'0 0.0
2017-Aug-11 04:30N 51°07' E 001°20'510.8
2017-Aug-11 04:00N 51°06' E 001°28'816.4
2017-Aug-11 03:30N 51°01' E 001°39'714.6
2017-Aug-11 03:00N 50°58' E 001°50'1 1.8
2017-Aug-11 02:29N 50°58' E 001°51'1 1.9
2017-Aug-11 02:00N 50°58' E 001°50'918.7
2017-Aug-11 01:30N 50°59' E 001°35'816.4
2017-Aug-11 01:01N 51°05' E 001°26'4 3.9
2017-Aug-10 23:54N 51°07' E 001°20'511.8
2017-Aug-10 23:31N 51°06' E 001°27'917.1
2017-Aug-10 23:00N 51°01' E 001°39'815.7
2017-Aug-10 22:30N 50°58' E 001°50'1 1.1
2017-Aug-10 22:00N 50°58' E 001°51'2 3.1
2017-Aug-10 21:30N 50°58' E 001°49'814.5
2017-Aug-10 20:58N 50°59' E 001°36'816.5
2017-Aug-10 20:30N 51°03' E 001°26'6 3.7
2017-Aug-10 18:59N 51°07' E 001°20'611.7
2017-Aug-10 18:30N 51°05' E 001°28'816.7
2017-Aug-10 18:00N 51°01' E 001°40'715.0
2017-Aug-10 17:31N 50°58' E 001°51'0 0.5
2017-Aug-10 17:00N 50°58' E 001°51'1 1.7
2017-Aug-10 16:30N 50°59' E 001°50'612.2
2017-Aug-10 16:00N 50°59' E 001°40'817.0
2017-Aug-10 15:30N 51°04' E 001°30'7 5.4
2017-Aug-10 14:14N 51°07' E 001°20'312.7
2017-Aug-10 14:01N 51°07' E 001°25'816.0
2017-Aug-10 13:31N 51°02' E 001°35'815.3
2017-Aug-10 13:00N 50°58' E 001°45'4 6.5
2017-Aug-10 12:28N 50°58' E 001°51'0 0.0
2017-Aug-10 11:59N 50°58' E 001°51'510.1
2017-Aug-10 11:30N 50°58' E 001°44'816.1
2017-Aug-10 11:00N 51°01' E 001°32'10 6.3
2017-Aug-10 09:28N 51°07' E 001°20'715.8
2017-Aug-10 09:00N 51°04' E 001°31'917.2
2017-Aug-10 08:30N 50°59' E 001°42'611.5
2017-Aug-10 08:00N 50°58' E 001°51'0 0.0
2017-Aug-10 07:30N 50°58' E 001°51'1 1.2
2017-Aug-10 07:00N 50°58' E 001°50'714.2
2017-Aug-10 06:30N 50°59' E 001°39'917.0
2017-Aug-10 06:00N 51°04' E 001°28'6 4.1
2017-Aug-10 04:33N 51°07' E 001°20'0 4.3
2017-Aug-10 04:30N 51°07' E 001°21'815.5
2017-Aug-10 04:00N 51°04' E 001°32'816.8
2017-Aug-10 03:30N 50°59' E 001°43'611.2
2017-Aug-10 03:00N 50°58' E 001°51'0 0.0
2017-Aug-10 02:30N 50°58' E 001°51'0 0.3
2017-Aug-10 02:00N 50°58' E 001°51'816.2
2017-Aug-10 01:30N 50°58' E 001°38'916.5
2017-Aug-10 00:59N 51°04' E 001°28'6 4.6
2017-Aug-09 23:42N 51°07' E 001°20'211.6
2017-Aug-09 23:31N 51°07' E 001°23'816.3
2017-Aug-09 23:01N 51°03' E 001°35'816.6
2017-Aug-09 22:31N 50°58' E 001°45'4 6.8
2017-Aug-09 21:59N 50°58' E 001°51'0 0.0
2017-Aug-09 21:30N 50°58' E 001°51'5 9.4
2017-Aug-09 21:00N 50°58' E 001°44'714.9
2017-Aug-09 20:31N 50°59' E 001°32'917.4
2017-Aug-09 20:00N 51°06' E 001°23'2 2.1
2017-Aug-09 18:57N 51°07' E 001°20'511.6
2017-Aug-09 18:30N 51°06' E 001°28'917.1
2017-Aug-09 18:01N 51°01' E 001°39'815.9
2017-Aug-09 17:31N 50°58' E 001°51'0 0.5
2017-Aug-09 17:00N 50°58' E 001°51'0 0.5
2017-Aug-09 16:31N 50°58' E 001°51'815.4
2017-Aug-09 16:00N 50°59' E 001°38'917.4
2017-Aug-09 15:31N 51°04' E 001°27'6 4.2
2017-Aug-09 14:11N 51°07' E 001°20'213.8
2017-Aug-09 14:00N 51°07' E 001°24'815.7
2017-Aug-09 13:31N 51°03' E 001°35'815.8
2017-Aug-09 13:01N 50°58' E 001°45'4 7.6
2017-Aug-09 12:30N 50°58' E 001°51'0 0.0
2017-Aug-09 11:55N 50°58' E 001°51'4 9.8
2017-Aug-09 11:30N 50°58' E 001°45'917.0
2017-Aug-09 11:00N 51°01' E 001°32'916.7
2017-Aug-09 10:28N 51°07' E 001°21'1 0.8
2017-Aug-09 09:23N 51°07' E 001°20'616.2
2017-Aug-09 09:00N 51°05' E 001°29'917.4
2017-Aug-09 08:31N 50°60' E 001°41'713.0
2017-Aug-09 07:59N 50°58' E 001°51'0 0.1
2017-Aug-09 07:29N 50°58' E 001°51'0 0.0
2017-Aug-09 07:01N 50°58' E 001°51'612.6
2017-Aug-09 06:31N 50°58' E 001°41'816.4
2017-Aug-09 06:01N 51°03' E 001°30'8 7.9
2017-Aug-09 05:01N 51°07' E 001°20'0 0.0
2017-Aug-09 04:35N 51°07' E 001°20'0 0.3
2017-Aug-09 04:12N 51°07' E 001°20'212.4
2017-Aug-09 04:01N 51°07' E 001°24'815.7
2017-Aug-09 03:31N 51°03' E 001°35'816.0
2017-Aug-09 03:01N 50°58' E 001°45'4 7.6
2017-Aug-09 02:30N 50°58' E 001°51'0 0.0
2017-Aug-09 01:59N 50°58' E 001°51'612.2
2017-Aug-09 01:30N 50°59' E 001°42'917.0
2017-Aug-09 01:00N 51°03' E 001°30'7 6.0
2017-Aug-08 23:46N 51°07' E 001°20'2 8.8
2017-Aug-08 23:30N 51°07' E 001°24'815.5
2017-Aug-08 23:00N 51°04' E 001°35'815.9
2017-Aug-08 22:30N 50°59' E 001°44'4 8.3
2017-Aug-08 22:00N 50°58' E 001°51'0 0.0
2017-Aug-08 21:30N 50°58' E 001°51'4 7.5
2017-Aug-08 21:00N 50°58' E 001°45'815.8
2017-Aug-08 20:30N 51°01' E 001°33'816.3
2017-Aug-08 20:00N 51°05' E 001°23'3 2.5
2017-Aug-08 18:57N 51°07' E 001°20'510.5
2017-Aug-08 18:30N 51°07' E 001°27'816.0
2017-Aug-08 18:01N 51°02' E 001°38'815.6
2017-Aug-08 17:30N 50°58' E 001°49'1 2.8
2017-Aug-08 17:00N 50°58' E 001°51'0 0.4
2017-Aug-08 16:30N 50°58' E 001°51'715.0
2017-Aug-08 16:01N 50°59' E 001°39'917.3
2017-Aug-08 15:30N 51°04' E 001°28'6 4.7
2017-Aug-08 14:17N 51°07' E 001°20'2 7.9
2017-Aug-08 14:01N 51°07' E 001°23'816.2
2017-Aug-08 13:30N 51°03' E 001°35'815.9
2017-Aug-08 13:00N 50°58' E 001°45'4 6.9
2017-Aug-08 12:28N 50°58' E 001°51'0 0.0
2017-Aug-08 12:00N 50°58' E 001°51'5 9.6
2017-Aug-08 11:30N 50°58' E 001°43'917.8
2017-Aug-08 11:01N 51°01' E 001°30'  

Dump ship's entire track history